Time;durP1;ratioP1;P1;durP2;ratioP2;P2;SDS_P1;SDS_P2;PMS_P1;PMS_P2;Temp;Humidity;BMP_temperature;BMP_pressure;BME280_temperature;BME280_humidity;BME280_pressure;Samples;Min_cycle;Max_cycle;Signal;HPM_P1;HPM_P2
2022/06/09 00:01:19;;;;;;;4.07;2.07;;;19.80;83.70;;;-142.21;100.00;112049.66;5115485;28;20446;-71
2022/06/09 00:03:52;;;;;;;2.30;2.10;;;19.80;83.60;;;-142.21;100.00;112049.66;5116402;28;20879;-70
2022/06/09 00:06:22;;;;;;;2.00;1.80;;;19.80;83.60;;;-142.21;100.00;112049.66;5115726;28;20475;-70
2022/06/09 00:08:53;;;;;;;1.90;1.80;;;19.80;83.50;;;-142.21;100.00;112049.66;5116416;28;20294;-70
2022/06/09 00:11:26;;;;;;;5.17;1.87;;;19.80;83.30;;;-142.21;100.00;112049.66;5115349;28;20951;-70
2022/06/09 00:13:54;;;;;;;1.70;1.60;;;19.70;83.50;;;-142.21;100.00;112049.66;5116262;28;20441;-71
2022/06/09 00:16:22;;;;;;;3.10;1.67;;;19.70;83.50;;;-142.21;100.00;112049.66;5115475;28;20451;-71
2022/06/09 00:18:49;;;;;;;2.20;1.90;;;19.60;83.80;;;-142.21;100.00;112049.66;5116565;28;20644;-70
2022/06/09 00:21:16;;;;;;;2.63;1.50;;;19.60;84.20;;;-142.21;100.00;112049.66;5115571;28;20236;-70
2022/06/09 00:23:45;;;;;;;1.90;1.80;;;19.50;84.30;;;-142.21;100.00;112049.66;5116044;28;20447;-71
2022/06/09 00:26:12;;;;;;;2.97;1.57;;;19.60;84.40;;;-142.21;100.00;112049.66;5115182;28;20492;-71
2022/06/09 00:28:39;;;;;;;2.90;1.80;;;19.50;84.10;;;-142.21;100.00;112049.66;5116026;28;20437;-71
2022/06/09 00:31:06;;;;;;;1.80;1.70;;;19.60;84.20;;;-142.21;100.00;112049.66;5115068;28;20524;-71
2022/06/09 00:33:33;;;;;;;2.10;2.00;;;19.50;84.10;;;-142.21;100.00;112049.66;5115963;28;20437;-71
2022/06/09 00:36:00;;;;;;;2.40;2.20;;;19.50;84.50;;;-142.21;100.00;112049.66;5116370;28;20444;-71
2022/06/09 00:38:27;;;;;;;1.97;1.87;;;19.50;84.70;;;-142.21;100.00;112049.66;5115811;28;20456;-71
2022/06/09 00:41:00;;;;;;;2.13;1.77;;;19.50;84.60;;;-142.21;100.00;112049.66;5115721;28;20199;-71
2022/06/09 00:43:27;;;;;;;2.00;1.70;;;19.50;84.80;;;-142.21;100.00;112049.66;5116173;28;20192;-70
2022/06/09 00:46:04;;;;;;;2.37;2.00;;;19.50;84.60;;;-142.21;100.00;112049.66;5115385;28;20481;-70
2022/06/09 00:48:42;;;;;;;2.80;1.83;;;19.40;84.60;;;-142.21;100.00;112049.66;5115668;28;20192;-71
2022/06/09 00:51:33;;;;;;;3.07;1.70;;;19.40;84.70;;;-142.21;100.00;112049.66;5115260;28;20603;-70
2022/06/09 00:54:07;;;;;;;1.70;1.60;;;19.50;84.50;;;-142.21;100.00;112049.66;5103355;28;20517;-71
2022/06/09 00:56:43;;;;;;;2.07;1.40;;;19.50;84.10;;;-142.21;100.00;112049.66;5115168;28;20444;-71
2022/06/09 00:59:15;;;;;;;1.50;1.30;;;19.40;83.80;;;-142.21;100.00;112049.66;5114952;28;20438;-70
2022/06/09 01:01:43;;;;;;;2.80;1.20;;;19.30;83.70;;;-142.21;100.00;112049.66;5112648;28;20462;-70
2022/06/09 01:04:14;;;;;;;1.10;0.90;;;19.30;83.50;;;-142.21;100.00;112049.66;5114316;28;20497;-70
2022/06/09 01:06:48;;;;;;;1.67;1.10;;;19.30;83.30;;;-142.21;100.00;112049.66;5115162;28;20973;-71
2022/06/09 01:09:20;;;;;;;1.10;1.10;;;19.30;83.20;;;-142.21;100.00;112049.66;5113801;28;20510;-71
2022/06/09 01:11:50;;;;;;;0.77;0.77;;;19.40;82.90;;;-142.21;100.00;112049.66;5114556;28;20731;-70
2022/06/09 01:14:22;;;;;;;1.93;1.37;;;19.40;83.60;;;-142.21;100.00;112049.66;5114607;28;20187;-70
2022/06/09 01:17:06;;;;;;;1.83;1.00;;;19.50;82.70;;;-142.21;100.00;112049.66;5115171;28;20428;-70
2022/06/09 01:20:01;;;;;;;2.63;1.17;;;19.40;82.50;;;-142.21;100.00;112049.66;5105740;28;20461;-70
2022/06/09 01:23:14;;;;;;;1.40;1.30;;;19.40;82.50;;;-142.21;100.00;112049.66;5114113;28;20444;-70
2022/06/09 01:26:27;;;;;;;1.20;1.10;;;19.30;82.50;;;-142.21;100.00;112049.66;5114785;28;20491;-71
2022/06/09 01:29:38;;;;;;;1.10;0.90;;;19.30;83.30;;;-142.21;100.00;112049.66;5113812;28;20751;-70
2022/06/09 01:32:14;;;;;;;1.30;1.20;;;19.30;83.00;;;-142.21;100.00;112049.66;5114514;28;20445;-70
2022/06/09 01:34:56;;;;;;;1.47;1.37;;;19.20;82.30;;;-142.21;100.00;112049.66;5115131;28;20521;-70
2022/06/09 01:37:28;;;;;;;1.30;1.20;;;19.20;82.80;;;-142.21;100.00;112049.66;5113917;28;20909;-70
2022/06/09 01:39:59;;;;;;;2.57;1.23;;;19.20;82.50;;;-142.21;100.00;112049.66;5114800;28;20463;-70
2022/06/09 01:42:31;;;;;;;1.27;1.10;;;19.10;82.70;;;-142.21;100.00;112049.66;5114170;28;20444;-70
2022/06/09 01:45:07;;;;;;;1.10;1.03;;;19.10;82.80;;;-142.21;100.00;112049.66;5113520;28;20922;-71
2022/06/09 01:47:49;;;;;;;1.20;1.10;;;19.10;82.60;;;-142.21;100.00;112049.66;5114842;28;20438;-71
2022/06/09 01:50:27;;;;;;;1.00;1.00;;;19.10;83.20;;;-142.21;100.00;112049.66;5114163;28;20521;-71
2022/06/09 01:52:58;;;;;;;2.33;1.47;;;19.10;82.80;;;-142.21;100.00;112049.66;5114632;28;20437;-71
2022/06/09 01:55:29;;;;;;;1.00;1.00;;;19.10;82.60;;;-142.21;100.00;112049.66;5113843;28;20442;-71
2022/06/09 01:58:02;;;;;;;1.60;1.43;;;19.10;82.80;;;-142.21;100.00;112049.66;5098704;28;20901;-71
2022/06/09 02:00:30;;;;;;;2.10;1.60;;;19.10;82.70;;;-142.21;100.00;112049.66;5113872;28;20444;-71
2022/06/09 02:03:07;;;;;;;1.83;1.20;;;19.10;82.50;;;-142.21;100.00;112049.66;5114320;28;20445;-71
2022/06/09 02:05:41;;;;;;;1.33;1.23;;;19.10;82.30;;;-142.21;100.00;112049.66;5114446;28;20472;-71
2022/06/09 02:08:15;;;;;;;2.97;1.40;;;19.20;82.30;;;-142.21;100.00;112049.66;5111984;28;20434;-71
2022/06/09 02:10:47;;;;;;;1.50;1.30;;;19.20;82.40;;;-142.21;100.00;112049.66;5113864;28;20481;-71
2022/06/09 02:13:20;;;;;;;2.73;1.30;;;19.20;82.30;;;-142.21;100.00;112049.66;5113136;28;20445;-70
2022/06/09 02:15:52;;;;;;;1.33;1.23;;;19.20;82.30;;;-142.21;100.00;112049.66;5114317;28;20468;-70
2022/06/09 02:18:26;;;;;;;3.03;1.30;;;19.10;82.20;;;-142.21;100.00;112049.66;5113390;28;20429;-70
2022/06/09 02:20:58;;;;;;;2.73;1.53;;;19.10;82.20;;;-142.21;100.00;112049.66;5113554;28;20430;-70
2022/06/09 02:23:27;;;;;;;2.43;1.20;;;19.10;82.20;;;-142.21;100.00;112049.66;5113575;28;20529;-70
2022/06/09 02:25:54;;;;;;;1.40;1.30;;;19.10;82.20;;;-142.21;100.00;112049.66;5113249;28;20484;-70
2022/06/09 02:28:21;;;;;;;1.53;1.33;;;19.00;82.10;;;-142.21;100.00;112049.66;5113156;28;20449;-70
2022/06/09 02:30:49;;;;;;;1.60;1.50;;;19.00;82.00;;;-142.21;100.00;112049.66;5113698;28;20441;-70
2022/06/09 02:33:16;;;;;;;1.67;1.43;;;19.00;82.10;;;-142.21;100.00;112049.66;5113079;28;20930;-70
2022/06/09 02:35:45;;;;;;;2.67;1.37;;;19.00;82.00;;;-142.21;100.00;112049.66;5113718;28;20468;-70
2022/06/09 02:38:12;;;;;;;2.93;1.70;;;19.00;82.10;;;-142.21;100.00;112049.66;5112704;28;20451;-70
2022/06/09 02:40:39;;;;;;;2.20;1.50;;;19.00;82.10;;;-142.21;100.00;112049.66;5113103;28;22157;-70
2022/06/09 02:43:09;;;;;;;2.93;1.70;;;19.00;82.00;;;-142.21;100.00;112049.66;5113499;28;20533;-70
2022/06/09 02:45:36;;;;;;;1.83;1.23;;;19.00;81.70;;;-142.21;100.00;112049.66;5113649;28;20533;-70
2022/06/09 02:48:04;;;;;;;1.93;1.33;;;19.00;81.70;;;-142.21;100.00;112049.66;5113397;28;20445;-71
2022/06/09 02:50:32;;;;;;;2.00;1.80;;;19.00;81.60;;;-142.21;100.00;112049.66;5113086;28;20452;-70
2022/06/09 02:53:01;;;;;;;1.63;1.30;;;19.10;81.90;;;-142.21;100.00;112049.66;5113064;28;20952;-70
2022/06/09 02:55:29;;;;;;;1.50;1.40;;;19.10;81.60;;;-142.21;100.00;112049.66;5112443;28;20445;-70
2022/06/09 02:57:57;;;;;;;1.60;1.20;;;19.10;81.70;;;-142.21;100.00;112049.66;5113547;28;20498;-71
2022/06/09 03:00:24;;;;;;;1.60;1.50;;;19.00;81.70;;;-142.21;100.00;112049.66;5113049;28;20770;-71
2022/06/09 03:02:55;;;;;;;2.27;1.70;;;19.10;81.50;;;-142.21;100.00;112049.66;5113226;28;20507;-71
2022/06/09 03:05:23;;;;;;;2.03;1.30;;;19.10;81.70;;;-142.21;100.00;112049.66;5112375;28;20473;-71
2022/06/09 03:07:50;;;;;;;2.63;1.70;;;19.10;81.60;;;-142.21;100.00;112049.66;5112755;28;20977;-71
2022/06/09 03:10:20;;;;;;;1.60;1.50;;;19.00;81.50;;;-142.21;100.00;112049.66;5111742;28;20449;-71
2022/06/09 03:12:47;;;;;;;2.80;1.47;;;19.00;81.70;;;-142.21;100.00;112049.66;5104583;28;20521;-71
2022/06/09 03:15:17;;;;;;;2.50;1.50;;;19.00;81.70;;;-142.21;100.00;112049.66;5110658;28;20472;-71
2022/06/09 03:17:45;;;;;;;1.33;1.23;;;19.00;81.90;;;-142.21;100.00;112049.66;5112861;28;20437;-71
2022/06/09 03:20:17;;;;;;;1.80;1.50;;;19.00;82.00;;;-142.21;100.00;112049.66;5112648;28;20441;-71
2022/06/09 03:22:44;;;;;;;3.20;1.60;;;19.00;82.10;;;-142.21;100.00;112049.66;5112787;28;20445;-71
2022/06/09 03:25:12;;;;;;;2.77;1.33;;;19.00;81.90;;;-142.21;100.00;112049.66;5111390;28;20479;-71
2022/06/09 03:27:41;;;;;;;2.60;1.67;;;19.00;82.00;;;-142.21;100.00;112049.66;5112517;28;20482;-71
2022/06/09 03:30:11;;;;;;;2.17;1.53;;;18.90;81.60;;;-142.21;100.00;112049.66;5112757;28;20446;-71
2022/06/09 03:32:38;;;;;;;2.73;1.63;;;18.90;82.00;;;-142.21;100.00;112049.66;5112985;28;20445;-71
2022/06/09 03:35:08;;;;;;;1.53;1.43;;;18.90;81.60;;;-142.21;100.00;112049.66;5112602;28;20942;-71
2022/06/09 03:37:35;;;;;;;3.10;1.60;;;18.80;81.70;;;-142.21;100.00;112049.66;5111880;28;20460;-71
2022/06/09 03:40:06;;;;;;;2.50;1.40;;;18.80;81.90;;;-142.21;100.00;112049.66;5112042;28;20840;-71
2022/06/09 03:42:33;;;;;;;3.17;1.70;;;18.80;81.70;;;-142.21;100.00;112049.66;5112057;28;20442;-71
2022/06/09 03:45:02;;;;;;;2.10;1.43;;;18.70;81.60;;;-142.21;100.00;112049.66;5112112;28;20441;-71
2022/06/09 03:47:29;;;;;;;3.00;1.80;;;18.70;81.60;;;-142.21;100.00;112049.66;5112004;28;20526;-71
2022/06/09 03:49:56;;;;;;;3.00;1.83;;;18.70;81.70;;;-142.21;100.00;112049.66;5112440;28;20442;-71
2022/06/09 03:52:23;;;;;;;2.93;1.70;;;18.70;81.80;;;-142.21;100.00;112049.66;5112038;28;20452;-70
2022/06/09 03:54:50;;;;;;;2.70;1.70;;;18.60;81.60;;;-142.21;100.00;112049.66;5112194;28;20450;-70
2022/06/09 03:57:20;;;;;;;3.37;1.83;;;18.50;81.90;;;-142.21;100.00;112049.66;5111803;28;20446;-70
2022/06/09 03:59:47;;;;;;;3.43;1.57;;;18.40;82.50;;;-142.21;100.00;112049.66;5112524;28;20789;-71
2022/06/09 04:02:15;;;;;;;1.93;1.57;;;18.30;83.00;;;-142.21;100.00;112049.66;5112210;28;20445;-70
2022/06/09 04:04:42;;;;;;;3.73;1.83;;;18.30;83.00;;;-142.21;100.00;112049.66;5112642;28;20461;-70
2022/06/09 04:07:12;;;;;;;3.37;1.67;;;18.30;82.90;;;-142.21;100.00;112049.66;5112042;28;20477;-70
2022/06/09 04:09:39;;;;;;;3.90;1.90;;;18.40;82.70;;;-142.21;100.00;112049.66;5111985;28;20449;-70
2022/06/09 04:12:09;;;;;;;1.63;1.53;;;18.30;82.80;;;-142.21;100.00;112049.66;5112250;28;20556;-70
2022/06/09 04:14:36;;;;;;;4.27;1.77;;;18.40;82.80;;;-142.21;100.00;112049.66;5111813;28;20448;-70
2022/06/09 04:17:03;;;;;;;2.10;1.70;;;18.40;82.30;;;-142.21;100.00;112049.66;5112003;28;20442;-70
2022/06/09 04:19:34;;;;;;;2.73;1.63;;;18.30;82.30;;;-142.21;100.00;112049.66;5111227;28;20471;-70
2022/06/09 04:22:01;;;;;;;2.07;1.70;;;18.30;82.20;;;-142.21;100.00;112049.66;5112356;28;20421;-70
2022/06/09 04:24:29;;;;;;;1.67;1.37;;;18.30;82.30;;;-142.21;100.00;112049.66;5111331;28;20470;-70
2022/06/09 04:26:56;;;;;;;2.30;1.67;;;18.30;82.10;;;-142.21;100.00;112049.66;5112153;28;20492;-70
2022/06/09 04:29:23;;;;;;;2.27;1.90;;;18.30;82.10;;;-142.21;100.00;112049.66;5111686;28;20537;-70
2022/06/09 04:31:51;;;;;;;2.50;1.83;;;18.20;81.60;;;-142.21;100.00;112049.66;5112348;28;20532;-70
2022/06/09 04:34:18;;;;;;;3.60;1.97;;;18.30;81.90;;;-142.21;100.00;112049.66;5111710;28;20468;-70
2022/06/09 04:36:48;;;;;;;3.17;1.90;;;18.40;81.60;;;-142.21;100.00;112049.66;5113657;28;20536;-70
2022/06/09 04:39:16;;;;;;;4.83;1.77;;;18.50;82.30;;;-142.21;100.00;112049.66;5114878;28;20488;-70
2022/06/09 04:41:43;;;;;;;3.07;1.90;;;18.50;81.30;;;-142.21;100.00;112049.66;5115528;28;20453;-71
2022/06/09 04:44:10;;;;;;;3.10;2.00;;;18.50;81.10;;;-142.21;100.00;112049.66;5115812;28;20441;-69
2022/06/09 04:46:37;;;;;;;2.80;1.70;;;18.60;81.10;;;-142.21;100.00;112049.66;5114968;28;20488;-71
2022/06/09 04:49:05;;;;;;;2.90;2.03;;;18.50;80.90;;;-142.21;100.00;112049.66;5115456;28;20509;-71
2022/06/09 04:51:36;;;;;;;2.77;2.53;;;18.50;80.80;;;-142.21;100.00;112049.66;5114410;28;20453;-71
2022/06/09 04:54:04;;;;;;;3.47;2.00;;;18.50;80.80;;;-142.21;100.00;112049.66;5115227;28;20434;-71
2022/06/09 04:56:31;;;;;;;3.27;1.60;;;18.60;81.00;;;-142.21;100.00;112049.66;5115172;28;20442;-71
2022/06/09 04:58:59;;;;;;;3.43;1.53;;;18.60;80.70;;;-142.21;100.00;112049.66;5115051;28;20537;-70
2022/06/09 05:01:29;;;;;;;4.07;1.83;;;18.50;80.50;;;-142.21;100.00;112049.66;5114772;28;20489;-70
2022/06/09 05:03:58;;;;;;;1.97;1.70;;;18.60;80.90;;;-142.21;100.00;112049.66;5115170;28;20552;-70
2022/06/09 05:06:27;;;;;;;3.17;2.00;;;18.60;80.60;;;-142.21;100.00;112049.66;5114199;28;20441;-71
2022/06/09 05:08:57;;;;;;;4.03;1.90;;;18.60;80.40;;;-142.21;100.00;112049.66;5115362;28;20445;-70
2022/06/09 05:11:27;;;;;;;2.17;1.90;;;18.60;80.30;;;-142.21;100.00;112049.66;5114658;28;20478;-70
2022/06/09 05:13:54;;;;;;;4.60;2.03;;;18.50;80.30;;;-142.21;100.00;112049.66;5115723;28;20449;-70
2022/06/09 05:16:22;;;;;;;2.80;1.80;;;18.50;80.10;;;-142.21;100.00;112049.66;5114013;28;20773;-70
2022/06/09 05:18:50;;;;;;;2.80;2.10;;;18.50;80.50;;;-142.21;100.00;112049.66;5115089;28;20446;-71
2022/06/09 05:21:17;;;;;;;4.33;2.00;;;18.60;80.30;;;-142.21;100.00;112049.66;5114881;28;20918;-70
2022/06/09 05:23:49;;;;;;;5.33;1.73;;;18.70;80.30;;;-142.21;100.00;112049.66;5115384;28;20468;-70
2022/06/09 05:26:17;;;;;;;5.57;2.03;;;18.60;79.60;;;-142.21;100.00;112049.66;5114486;28;20430;-70
2022/06/09 05:28:45;;;;;;;3.57;1.93;;;18.60;80.20;;;-142.21;100.00;112049.66;5115447;28;20458;-70
2022/06/09 05:31:12;;;;;;;4.97;2.20;;;18.60;79.70;;;-142.21;100.00;112049.66;5114714;27;20441;-71
2022/06/09 05:33:40;;;;;;;2.73;1.87;;;18.60;79.80;;;-142.21;100.00;112049.66;5114540;28;20533;-71
2022/06/09 05:36:08;;;;;;;4.80;2.00;;;18.70;79.50;;;-142.21;100.00;112049.66;5114636;28;20446;-71
2022/06/09 05:46:51;;;;;;;2.23;1.70;;;18.70;78.50;;;-142.21;100.00;112049.66;5114358;28;20594;-71
2022/06/09 05:49:19;;;;;;;2.53;1.60;;;18.70;78.20;;;-142.21;100.00;112049.66;5113729;28;21009;-71
2022/06/09 05:51:47;;;;;;;3.43;1.70;;;18.70;78.20;;;-142.21;100.00;112049.66;5112593;28;20532;-71
2022/06/09 05:54:15;;;;;;;3.90;1.90;;;18.60;78.00;;;-142.21;100.00;112049.66;5114567;28;20925;-71
2022/06/09 05:56:42;;;;;;;5.43;1.97;;;18.40;78.00;;;-142.21;100.00;112049.66;5109695;28;20772;-71
2022/06/09 05:59:20;;;;;;;3.03;1.77;;;18.50;78.40;;;-142.21;100.00;112049.66;5103012;28;20458;-71
2022/06/09 06:01:47;;;;;;;4.93;1.90;;;18.60;78.20;;;-142.21;100.00;112049.66;5102436;28;20429;-72
2022/06/09 06:04:18;;;;;;;3.17;1.50;;;18.60;77.50;;;-142.21;100.00;112049.66;5097036;28;20468;-71
2022/06/09 06:06:45;;;;;;;3.60;2.20;;;18.70;77.20;;;-142.21;100.00;112049.66;5109285;28;20220;-71
2022/06/09 06:09:16;;;;;;;3.63;1.80;;;18.70;76.00;;;-142.21;100.00;112049.66;5103557;28;20514;-71
2022/06/09 06:11:46;;;;;;;3.37;1.63;;;18.70;76.60;;;-142.21;100.00;112049.66;5108067;28;20997;-71
2022/06/09 06:14:16;;;;;;;5.50;1.90;;;18.70;76.80;;;-142.21;100.00;112049.66;5097497;28;20434;-71
2022/06/09 06:16:44;;;;;;;3.97;1.60;;;18.70;74.70;;;-142.21;100.00;112049.66;5107102;28;20532;-71
2022/06/09 06:19:16;;;;;;;7.33;1.77;;;18.60;76.00;;;-142.21;100.00;112049.66;5113807;28;20910;-72
2022/06/09 06:21:44;;;;;;;3.03;1.47;;;18.70;75.90;;;-142.21;100.00;112049.66;5113127;28;20775;-72
2022/06/09 06:24:14;;;;;;;3.07;1.57;;;18.80;75.40;;;-142.21;100.00;112049.66;5113392;28;20518;-72
2022/06/09 06:26:42;;;;;;;4.97;2.20;;;18.80;75.30;;;-142.21;100.00;112049.66;5113268;28;20468;-72
2022/06/09 06:29:17;;;;;;;2.63;1.93;;;18.80;74.30;;;-142.21;100.00;112049.66;5112052;28;20452;-72
2022/06/09 06:31:45;;;;;;;3.23;1.80;;;19.00;74.60;;;-142.21;100.00;112049.66;5113498;28;20508;-72
2022/06/09 06:34:13;;;;;;;4.57;1.77;;;19.20;72.90;;;-142.21;100.00;112049.66;5113815;28;20514;-72
2022/06/09 06:36:41;;;;;;;4.40;1.90;;;19.10;72.50;;;-142.21;100.00;112049.66;5113370;28;20204;-72
2022/06/09 06:39:08;;;;;;;4.80;1.50;;;19.20;72.50;;;-142.21;100.00;112049.66;5113970;28;20492;-71
2022/06/09 06:41:37;;;;;;;6.07;1.90;;;19.40;71.70;;;-142.21;100.00;112049.66;5113117;28;20446;-71
2022/06/09 06:44:05;;;;;;;2.20;1.33;;;19.40;71.60;;;-142.21;100.00;112049.66;5113674;28;20957;-72
2022/06/09 06:46:34;;;;;;;3.30;1.50;;;19.50;71.40;;;-142.21;100.00;112049.66;5112840;28;20995;-72
2022/06/09 06:49:01;;;;;;;3.10;1.60;;;19.50;70.50;;;-142.21;100.00;112049.66;5113468;28;20231;-72
2022/06/09 06:51:29;;;;;;;4.93;1.80;;;19.50;70.00;;;-142.21;100.00;112049.66;5113155;28;20478;-72
2022/06/09 06:53:56;;;;;;;2.97;1.67;;;19.50;70.10;;;-142.21;100.00;112049.66;5113627;28;20854;-72
2022/06/09 06:56:24;;;;;;;2.53;1.73;;;19.50;70.10;;;-142.21;100.00;112049.66;5077115;28;20480;-72
2022/06/09 06:58:51;;;;;;;3.53;2.30;;;19.70;70.00;;;-142.21;100.00;112049.66;5113290;28;20934;-71
2022/06/09 07:01:18;;;;;;;4.97;1.43;;;19.80;68.60;;;-142.21;100.00;112049.66;5112408;28;20536;-72
2022/06/09 07:03:47;;;;;;;1.73;1.63;;;19.90;69.20;;;-142.21;100.00;112049.66;5112263;28;20311;-72
2022/06/09 07:06:14;;;;;;;3.60;1.70;;;19.90;67.90;;;-142.21;99.98;112049.66;5113456;28;20502;-72
2022/06/09 07:08:41;;;;;;;5.77;1.93;;;19.60;67.90;;;-142.21;100.00;112049.66;5112306;28;20643;-72
2022/06/09 07:11:10;;;;;;;3.07;1.43;;;19.40;67.20;;;-142.21;100.00;112049.66;5112926;28;20509;-72
2022/06/09 07:13:37;;;;;;;2.83;1.90;;;19.40;69.40;;;-142.21;100.00;112049.66;5112424;28;20494;-72
2022/06/09 07:16:07;;;;;;;3.80;2.20;;;19.60;69.10;;;-142.21;100.00;112049.66;5113157;28;20452;-72
2022/06/09 07:18:37;;;;;;;3.57;2.00;;;19.60;68.40;;;-142.21;100.00;112049.66;5112434;28;20474;-72
2022/06/09 07:21:07;;;;;;;3.63;1.67;;;19.60;68.80;;;-142.21;99.35;112049.66;5113262;28;20429;-73
2022/06/09 07:23:36;;;;;;;6.33;2.07;;;19.60;67.30;;;-142.21;100.00;112049.66;5112697;28;20425;-73
2022/06/09 07:26:05;;;;;;;2.17;1.50;;;19.60;68.50;;;-142.21;100.00;112049.66;5112622;28;20200;-72
2022/06/09 07:28:33;;;;;;;3.27;1.70;;;19.60;68.80;;;-142.21;100.00;112049.66;5112637;28;20879;-73
2022/06/09 07:31:04;;;;;;;3.73;1.43;;;19.60;68.50;;;-142.21;100.00;112049.66;5112673;28;20453;-70
2022/06/09 07:33:36;;;;;;;6.07;1.90;;;19.60;68.50;;;-142.21;100.00;112049.66;5112511;28;20215;-73
2022/06/09 07:36:09;;;;;;;2.53;1.50;;;19.60;68.80;;;-142.21;100.00;112049.66;5112624;28;20188;-70
2022/06/09 07:38:40;;;;;;;4.53;1.60;;;19.70;68.30;;;-142.21;100.00;112049.66;5112556;28;20540;-70
2022/06/09 07:41:09;;;;;;;2.77;1.40;;;19.80;68.20;;;-142.21;96.12;112049.66;5112728;28;20430;-72
2022/06/09 07:43:36;;;;;;;2.50;1.50;;;19.90;66.30;;;-142.21;94.73;112049.66;5112569;28;20552;-73
2022/06/09 07:46:04;;;;;;;3.57;1.20;;;20.00;64.80;;;-142.21;95.28;112049.66;5112854;28;20469;-73
2022/06/09 07:48:31;;;;;;;5.90;1.77;;;20.00;65.70;;;-142.21;94.94;112049.66;5112607;28;20485;-73
2022/06/09 07:51:00;;;;;;;3.20;1.40;;;19.90;65.20;;;-142.21;95.17;112049.66;5113099;28;20235;-73
2022/06/09 07:53:30;;;;;;;3.57;1.70;;;20.00;65.30;;;-142.21;97.62;112049.66;5112479;28;20449;-70
2022/06/09 07:55:58;;;;;;;5.87;1.53;;;20.20;66.60;;;-142.21;94.97;112049.66;5112499;28;20449;-72
2022/06/09 07:58:25;;;;;;;3.53;1.30;;;20.40;64.90;;;-142.21;95.35;112049.66;5112585;28;20469;-73
2022/06/09 08:00:52;;;;;;;1.83;1.40;;;20.50;64.80;;;-142.21;95.98;112049.66;5076812;28;20449;-73
2022/06/09 08:03:24;;;;;;;4.60;1.77;;;20.70;65.10;;;-142.21;95.02;112049.66;5112871;28;20231;-72
2022/06/09 08:05:52;;;;;;;3.83;1.60;;;20.60;64.00;;;-142.21;96.38;112049.66;5112539;28;20192;-72
2022/06/09 08:08:20;;;;;;;3.40;1.97;;;20.70;65.10;;;-142.21;98.43;112049.66;5112671;28;20546;-72
2022/06/09 08:10:50;;;;;;;1.63;1.20;;;20.80;65.90;;;-142.21;97.95;112049.66;5111548;28;20326;-71
2022/06/09 08:13:17;;;;;;;2.93;1.40;;;21.00;65.20;;;-142.21;97.65;112049.66;5116366;28;20223;-72
2022/06/09 08:15:46;;;;;;;3.33;1.70;;;21.10;65.30;;;-142.21;96.83;112049.66;5115573;28;20214;-72
2022/06/09 08:18:13;;;;;;;3.60;1.67;;;21.20;64.80;;;-142.21;95.06;112049.66;5116706;28;20253;-72
2022/06/09 08:20:43;;;;;;;4.83;1.63;;;21.20;63.40;;;-142.21;94.29;112049.66;5115708;28;20294;-72
2022/06/09 08:23:17;;;;;;;6.67;1.60;;;21.20;63.00;;;-142.21;93.58;112049.66;5116495;28;20288;-73
2022/06/09 08:25:46;;;;;;;3.27;1.30;;;21.10;62.90;;;-142.21;96.62;112049.66;5103797;28;20473;-72
2022/06/09 08:28:18;;;;;;;2.67;1.53;;;21.10;64.00;;;-142.21;96.06;112049.66;5115884;28;20230;-72
2022/06/09 08:30:47;;;;;;;2.87;1.47;;;21.30;64.00;;;-142.21;96.44;112049.66;5115729;28;20195;-72
2022/06/09 08:33:14;;;;;;;2.77;1.67;;;21.40;64.20;;;-142.21;92.95;112049.66;5116424;28;20257;-70
2022/06/09 08:35:42;;;;;;;3.13;1.80;;;21.40;62.30;;;-142.21;90.93;112049.66;5115504;28;20206;-72
2022/06/09 08:38:09;;;;;;;3.40;1.60;;;21.30;60.40;;;-142.21;91.91;112049.66;5116125;28;20235;-72
2022/06/09 08:40:51;;;;;;;2.83;1.90;;;21.00;61.30;;;-142.21;92.53;112049.66;5115670;28;20208;-72
2022/06/09 08:43:34;;;;;;;5.53;2.43;;;20.90;62.20;;;-142.21;91.93;112049.66;5115660;28;20274;-72
2022/06/09 08:46:14;;;;;;;5.17;1.93;;;20.70;61.90;;;-142.21;93.94;112049.66;5116059;28;20433;-72
2022/06/09 08:48:45;;;;;;;5.97;2.13;;;20.80;63.70;;;-142.21;95.66;112049.66;5115426;28;20250;-73
2022/06/09 08:51:23;;;;;;;2.47;1.47;;;21.00;64.40;;;-142.21;94.83;112049.66;5116168;28;20452;-73
2022/06/09 08:54:13;;;;;;;5.63;1.73;;;21.20;63.90;;;-142.21;90.17;112049.66;5115539;28;20188;-72
2022/06/09 08:56:45;;;;;;;3.77;1.77;;;21.30;61.00;;;-142.21;92.72;112049.66;5115372;28;20261;-71
2022/06/09 08:59:18;;;;;;;5.03;1.83;;;21.50;62.40;;;-142.21;90.35;112049.66;5115876;28;20527;-72
2022/06/09 09:01:55;;;;;;;4.23;1.57;;;21.50;61.80;;;-142.21;90.59;112049.66;5115194;28;20684;-73
2022/06/09 09:04:31;;;;;;;4.00;1.50;;;21.60;61.40;;;-142.21;90.81;112049.66;5116003;28;20259;-73
2022/06/09 09:07:11;;;;;;;3.10;1.80;;;21.80;61.70;;;-142.21;89.73;112049.66;5115816;28;20280;-72
2022/06/09 09:09:41;;;;;;;3.40;1.70;;;21.90;60.60;;;-142.21;89.12;112049.66;5115185;28;20311;-72
2022/06/09 09:12:19;;;;;;;4.87;1.70;;;22.10;60.70;;;-142.21;84.22;112049.66;5115132;28;20638;-72
2022/06/09 09:14:54;;;;;;;4.70;1.50;;;22.00;58.10;;;-142.21;84.23;112049.66;5115152;28;20242;-72
2022/06/09 09:17:38;;;;;;;2.53;1.60;;;21.80;58.80;;;-142.21;79.77;112049.66;5115333;28;20640;-73
2022/06/09 09:20:16;;;;;;;2.83;1.37;;;21.70;57.10;;;-142.21;83.58;112049.66;5115534;28;20184;-72
2022/06/09 09:22:54;;;;;;;4.03;1.60;;;21.80;58.90;;;-142.21;86.46;112049.66;5114054;28;20196;-72
2022/06/09 09:25:31;;;;;;;3.77;1.67;;;22.00;59.60;;;-142.21;82.90;112049.66;5104904;28;20196;-72
2022/06/09 09:28:12;;;;;;;5.87;1.43;;;22.30;58.80;;;-142.21;83.91;112049.66;5094412;28;20204;-72
2022/06/09 09:30:59;;;;;;;3.73;1.80;;;22.40;58.20;;;-142.21;85.11;112049.66;5094069;28;20685;-73
2022/06/09 09:33:28;;;;;;;2.27;1.30;;;22.60;58.80;;;-142.21;83.85;112049.66;5094830;28;20644;-72
2022/06/09 09:36:06;;;;;;;2.83;1.53;;;22.80;58.80;;;-142.21;74.58;112049.66;5094242;28;20250;-73
2022/06/09 09:38:41;;;;;;;2.10;1.30;;;22.80;54.80;;;-142.21;79.19;112049.66;5094270;28;20200;-72
2022/06/09 09:41:08;;;;;;;3.53;1.50;;;22.80;57.80;;;-142.21;76.85;112049.66;5094938;28;20223;-72
2022/06/09 09:43:41;;;;;;;5.53;2.20;;;22.70;55.80;;;-142.21;80.49;112049.66;5094328;28;20211;-72
2022/06/09 09:46:28;;;;;;;4.53;1.40;;;22.70;57.90;;;-142.21;74.38;112049.66;5105961;28;20192;-72
2022/06/09 09:48:58;;;;;;;2.30;1.60;;;22.70;55.50;;;-142.21;78.66;112049.66;5114101;27;20274;-74
2022/06/09 09:51:35;;;;;;;4.10;1.30;;;22.80;57.00;;;-142.21;74.80;112049.66;5114546;28;20257;-73
2022/06/09 09:54:17;;;;;;;2.37;1.23;;;23.00;55.70;;;-142.21;71.77;112049.66;5115187;28;20203;-72
2022/06/09 09:56:44;;;;;;;4.00;1.73;;;23.00;55.10;;;-142.21;75.47;112049.66;5113863;28;20188;-72
2022/06/09 09:59:24;;;;;;;4.03;1.90;;;22.90;55.90;;;-142.21;77.74;112049.66;5114563;28;20203;-73
2022/06/09 10:10:28;;;;;;;3.63;1.60;;;23.30;52.70;;;-142.21;64.65;112049.66;5113966;28;20184;-72
2022/06/09 10:12:56;;;;;;;2.20;1.30;;;23.10;52.50;;;-142.21;63.39;112049.66;5114027;28;20184;-72
2022/06/09 10:15:30;;;;;;;2.80;1.00;;;23.10;53.20;;;-142.21;67.96;112049.66;5114549;28;20210;-73
2022/06/09 10:18:05;;;;;;;3.30;1.50;;;23.00;54.10;;;-142.21;62.01;112049.66;5113662;28;20196;-72
2022/06/09 10:20:41;;;;;;;3.13;1.47;;;23.00;51.90;;;-142.21;60.92;112049.66;5114168;27;20283;-72
2022/06/09 10:23:43;;;;;;;2.33;1.10;;;23.00;52.20;;;-142.21;57.41;112049.66;5114100;28;20245;-73
2022/06/09 10:26:16;;;;;;;2.43;1.43;;;22.90;51.00;;;-142.21;59.20;112049.66;5102002;28;20196;-73
2022/06/09 10:29:01;;;;;;;4.23;1.43;;;22.80;51.80;;;-142.21;60.32;112049.66;5113298;28;20310;-73